sensor_id;sensor_type;location;lat;lon;timestamp;temperature;humidity
53272;DHT22;39160;48.580;7.756;2023-12-07T00:00:00;6.20;99.90
53272;DHT22;39160;48.580;7.756;2023-12-07T00:04:50;6.20;99.90
53272;DHT22;39160;48.580;7.756;2023-12-07T00:09:52;6.10;99.90
53272;DHT22;39160;48.580;7.756;2023-12-07T00:14:43;6.00;99.90
53272;DHT22;39160;48.580;7.756;2023-12-07T00:19:34;5.90;99.90
53272;DHT22;39160;48.580;7.756;2023-12-07T00:24:24;5.90;99.90
53272;DHT22;39160;48.580;7.756;2023-12-07T00:29:15;5.80;99.90
53272;DHT22;39160;48.580;7.756;2023-12-07T00:34:06;5.80;99.90
53272;DHT22;39160;48.580;7.756;2023-12-07T00:38:56;5.90;99.90
53272;DHT22;39160;48.580;7.756;2023-12-07T00:43:47;5.90;99.90
53272;DHT22;39160;48.580;7.756;2023-12-07T00:48:38;5.90;99.90
53272;DHT22;39160;48.580;7.756;2023-12-07T00:53:28;5.90;99.90
53272;DHT22;39160;48.580;7.756;2023-12-07T00:58:19;5.90;99.90
53272;DHT22;39160;48.580;7.756;2023-12-07T01:03:10;5.80;99.90
53272;DHT22;39160;48.580;7.756;2023-12-07T01:08:00;5.70;99.90
53272;DHT22;39160;48.580;7.756;2023-12-07T01:12:51;5.60;99.90
53272;DHT22;39160;48.580;7.756;2023-12-07T01:17:42;5.60;99.90
53272;DHT22;39160;48.580;7.756;2023-12-07T01:22:32;5.60;99.90
53272;DHT22;39160;48.580;7.756;2023-12-07T01:27:23;5.60;99.90
53272;DHT22;39160;48.580;7.756;2023-12-07T01:32:13;5.50;99.90
53272;DHT22;39160;48.580;7.756;2023-12-07T01:37:04;5.50;99.90
53272;DHT22;39160;48.580;7.756;2023-12-07T01:41:55;5.50;99.90
53272;DHT22;39160;48.580;7.756;2023-12-07T01:46:46;5.50;99.90
53272;DHT22;39160;48.580;7.756;2023-12-07T01:51:36;5.50;99.90
53272;DHT22;39160;48.580;7.756;2023-12-07T01:56:27;5.50;99.90
53272;DHT22;39160;48.580;7.756;2023-12-07T02:01:18;5.50;99.90
53272;DHT22;39160;48.580;7.756;2023-12-07T02:06:09;5.40;99.90
53272;DHT22;39160;48.580;7.756;2023-12-07T02:11:00;5.40;99.90
53272;DHT22;39160;48.580;7.756;2023-12-07T02:15:53;5.40;99.90
53272;DHT22;39160;48.580;7.756;2023-12-07T02:26:03;5.20;99.90
53272;DHT22;39160;48.580;7.756;2023-12-07T02:30:53;5.20;99.90
53272;DHT22;39160;48.580;7.756;2023-12-07T02:35:44;5.20;99.90
53272;DHT22;39160;48.580;7.756;2023-12-07T02:40:35;5.20;99.90
53272;DHT22;39160;48.580;7.756;2023-12-07T02:45:26;5.30;99.90
53272;DHT22;39160;48.580;7.756;2023-12-07T02:50:17;5.20;99.90
53272;DHT22;39160;48.580;7.756;2023-12-07T02:55:08;5.20;99.90
53272;DHT22;39160;48.580;7.756;2023-12-07T02:59:59;5.30;99.90
53272;DHT22;39160;48.580;7.756;2023-12-07T03:04:50;5.20;99.90
53272;DHT22;39160;48.580;7.756;2023-12-07T03:09:41;5.10;99.90
53272;DHT22;39160;48.580;7.756;2023-12-07T03:14:31;5.10;99.90
53272;DHT22;39160;48.580;7.756;2023-12-07T03:19:22;5.10;99.90
53272;DHT22;39160;48.580;7.756;2023-12-07T03:24:13;5.10;99.90
53272;DHT22;39160;48.580;7.756;2023-12-07T03:29:03;5.10;99.90
53272;DHT22;39160;48.580;7.756;2023-12-07T03:33:55;5.00;99.90
53272;DHT22;39160;48.580;7.756;2023-12-07T03:38:46;5.00;99.90
53272;DHT22;39160;48.580;7.756;2023-12-07T03:43:36;5.00;99.90
53272;DHT22;39160;48.580;7.756;2023-12-07T03:48:27;4.90;99.90
53272;DHT22;39160;48.580;7.756;2023-12-07T03:53:18;5.00;99.90
53272;DHT22;39160;48.580;7.756;2023-12-07T03:58:08;4.90;99.90
53272;DHT22;39160;48.580;7.756;2023-12-07T04:02:59;4.90;99.90
53272;DHT22;39160;48.580;7.756;2023-12-07T04:07:50;4.90;99.90
53272;DHT22;39160;48.580;7.756;2023-12-07T04:12:41;4.80;99.90
53272;DHT22;39160;48.580;7.756;2023-12-07T04:17:31;4.80;99.90
53272;DHT22;39160;48.580;7.756;2023-12-07T04:22:23;4.70;99.90
53272;DHT22;39160;48.580;7.756;2023-12-07T04:27:13;4.60;99.90
53272;DHT22;39160;48.580;7.756;2023-12-07T04:32:05;4.60;99.90
53272;DHT22;39160;48.580;7.756;2023-12-07T04:36:56;4.60;99.90
53272;DHT22;39160;48.580;7.756;2023-12-07T04:41:47;4.50;99.90
53272;DHT22;39160;48.580;7.756;2023-12-07T04:46:37;4.50;99.90
53272;DHT22;39160;48.580;7.756;2023-12-07T04:51:28;4.50;99.90
53272;DHT22;39160;48.580;7.756;2023-12-07T04:56:19;4.40;99.90
53272;DHT22;39160;48.580;7.756;2023-12-07T05:01:09;4.30;99.90
53272;DHT22;39160;48.580;7.756;2023-12-07T05:06:00;4.20;99.90
53272;DHT22;39160;48.580;7.756;2023-12-07T05:10:51;4.30;99.90
53272;DHT22;39160;48.580;7.756;2023-12-07T05:15:42;4.20;99.90
53272;DHT22;39160;48.580;7.756;2023-12-07T05:20:33;4.10;99.90
53272;DHT22;39160;48.580;7.756;2023-12-07T05:25:24;4.20;99.90
53272;DHT22;39160;48.580;7.756;2023-12-07T05:30:15;4.20;99.90
53272;DHT22;39160;48.580;7.756;2023-12-07T05:35:06;4.00;99.90
53272;DHT22;39160;48.580;7.756;2023-12-07T05:39:57;3.90;99.90
53272;DHT22;39160;48.580;7.756;2023-12-07T05:44:48;3.90;99.90
53272;DHT22;39160;48.580;7.756;2023-12-07T05:49:38;3.70;99.90
53272;DHT22;39160;48.580;7.756;2023-12-07T05:54:29;3.70;99.90
53272;DHT22;39160;48.580;7.756;2023-12-07T05:59:20;3.70;99.90
53272;DHT22;39160;48.580;7.756;2023-12-07T06:04:11;3.60;99.90
53272;DHT22;39160;48.580;7.756;2023-12-07T06:09:02;3.60;99.90
53272;DHT22;39160;48.580;7.756;2023-12-07T06:13:55;3.60;99.90
53272;DHT22;39160;48.580;7.756;2023-12-07T06:18:46;3.60;99.90
53272;DHT22;39160;48.580;7.756;2023-12-07T06:23:37;3.70;99.90
53272;DHT22;39160;48.580;7.756;2023-12-07T06:28:28;3.70;99.90
53272;DHT22;39160;48.580;7.756;2023-12-07T06:33:18;3.60;99.90
53272;DHT22;39160;48.580;7.756;2023-12-07T06:38:10;3.60;99.90
53272;DHT22;39160;48.580;7.756;2023-12-07T06:43:01;3.50;99.90
53272;DHT22;39160;48.580;7.756;2023-12-07T06:47:52;3.50;99.90
53272;DHT22;39160;48.580;7.756;2023-12-07T06:52:42;3.50;99.90
53272;DHT22;39160;48.580;7.756;2023-12-07T06:57:33;3.40;99.90
53272;DHT22;39160;48.580;7.756;2023-12-07T07:02:24;3.40;99.90
53272;DHT22;39160;48.580;7.756;2023-12-07T07:07:15;3.40;99.90
53272;DHT22;39160;48.580;7.756;2023-12-07T07:12:06;3.40;99.90
53272;DHT22;39160;48.580;7.756;2023-12-07T07:16:57;3.40;99.90
53272;DHT22;39160;48.580;7.756;2023-12-07T07:21:47;3.50;99.90
53272;DHT22;39160;48.580;7.756;2023-12-07T07:26:38;3.50;99.90
53272;DHT22;39160;48.580;7.756;2023-12-07T07:31:29;3.40;99.90
53272;DHT22;39160;48.580;7.756;2023-12-07T07:36:20;3.50;99.90
53272;DHT22;39160;48.580;7.756;2023-12-07T07:41:11;3.50;99.90
53272;DHT22;39160;48.580;7.756;2023-12-07T07:46:03;3.60;99.90
53272;DHT22;39160;48.580;7.756;2023-12-07T07:50:54;3.60;99.90
53272;DHT22;39160;48.580;7.756;2023-12-07T07:55:44;3.80;99.90
53272;DHT22;39160;48.580;7.756;2023-12-07T08:00:35;4.00;99.90
53272;DHT22;39160;48.580;7.756;2023-12-07T08:05:26;4.00;99.90
53272;DHT22;39160;48.580;7.756;2023-12-07T08:10:17;3.90;99.90
53272;DHT22;39160;48.580;7.756;2023-12-07T08:15:09;3.80;99.90
53272;DHT22;39160;48.580;7.756;2023-12-07T08:20:01;3.90;99.90
53272;DHT22;39160;48.580;7.756;2023-12-07T08:24:51;3.90;99.90
53272;DHT22;39160;48.580;7.756;2023-12-07T08:29:42;4.00;99.90
53272;DHT22;39160;48.580;7.756;2023-12-07T08:34:33;3.90;99.90
53272;DHT22;39160;48.580;7.756;2023-12-07T08:39:23;3.90;99.90
53272;DHT22;39160;48.580;7.756;2023-12-07T08:44:15;3.80;99.90
53272;DHT22;39160;48.580;7.756;2023-12-07T08:49:06;3.90;99.90
53272;DHT22;39160;48.580;7.756;2023-12-07T08:53:57;3.90;99.90
53272;DHT22;39160;48.580;7.756;2023-12-07T08:58:47;3.90;99.90
53272;DHT22;39160;48.580;7.756;2023-12-07T09:03:38;3.80;99.90
53272;DHT22;39160;48.580;7.756;2023-12-07T09:08:29;3.90;99.90
53272;DHT22;39160;48.580;7.756;2023-12-07T09:13:19;3.80;99.90
53272;DHT22;39160;48.580;7.756;2023-12-07T09:18:10;3.80;99.90
53272;DHT22;39160;48.580;7.756;2023-12-07T09:23:04;3.80;99.90
53272;DHT22;39160;48.580;7.756;2023-12-07T09:27:55;4.00;99.90
53272;DHT22;39160;48.580;7.756;2023-12-07T09:32:46;4.10;99.90
53272;DHT22;39160;48.580;7.756;2023-12-07T09:37:37;4.10;99.90
53272;DHT22;39160;48.580;7.756;2023-12-07T09:42:28;4.10;99.90
53272;DHT22;39160;48.580;7.756;2023-12-07T09:47:19;4.20;99.90
53272;DHT22;39160;48.580;7.756;2023-12-07T09:52:10;4.20;99.90
53272;DHT22;39160;48.580;7.756;2023-12-07T09:57:02;4.20;99.90
53272;DHT22;39160;48.580;7.756;2023-12-07T10:01:53;4.20;99.90
53272;DHT22;39160;48.580;7.756;2023-12-07T10:06:46;4.30;99.90
53272;DHT22;39160;48.580;7.756;2023-12-07T10:11:41;4.30;99.90
53272;DHT22;39160;48.580;7.756;2023-12-07T10:16:32;4.30;99.90
53272;DHT22;39160;48.580;7.756;2023-12-07T10:21:34;4.30;99.90
53272;DHT22;39160;48.580;7.756;2023-12-07T10:26:25;4.40;99.90
53272;DHT22;39160;48.580;7.756;2023-12-07T10:31:18;4.40;99.90
53272;DHT22;39160;48.580;7.756;2023-12-07T10:36:09;4.40;99.90
53272;DHT22;39160;48.580;7.756;2023-12-07T10:41:07;4.50;99.90
53272;DHT22;39160;48.580;7.756;2023-12-07T10:45:59;4.40;99.90
53272;DHT22;39160;48.580;7.756;2023-12-07T10:50:53;4.40;99.90
53272;DHT22;39160;48.580;7.756;2023-12-07T10:55:51;4.50;99.90
53272;DHT22;39160;48.580;7.756;2023-12-07T11:00:43;4.50;99.90
53272;DHT22;39160;48.580;7.756;2023-12-07T11:05:37;4.60;99.90
53272;DHT22;39160;48.580;7.756;2023-12-07T11:10:36;4.60;99.90
53272;DHT22;39160;48.580;7.756;2023-12-07T11:15:29;4.70;99.90
53272;DHT22;39160;48.580;7.756;2023-12-07T11:20:43;4.70;99.90
53272;DHT22;39160;48.580;7.756;2023-12-07T11:25:32;4.60;99.90
53272;DHT22;39160;48.580;7.756;2023-12-07T11:30:24;4.60;99.90
53272;DHT22;39160;48.580;7.756;2023-12-07T11:35:15;4.70;99.90
53272;DHT22;39160;48.580;7.756;2023-12-07T11:40:06;4.70;99.90
53272;DHT22;39160;48.580;7.756;2023-12-07T11:44:57;4.60;99.90
53272;DHT22;39160;48.580;7.756;2023-12-07T11:49:47;4.60;99.90
53272;DHT22;39160;48.580;7.756;2023-12-07T11:54:38;4.70;99.90
53272;DHT22;39160;48.580;7.756;2023-12-07T11:59:29;4.80;99.90
53272;DHT22;39160;48.580;7.756;2023-12-07T12:04:21;4.70;99.90
53272;DHT22;39160;48.580;7.756;2023-12-07T12:09:15;4.60;99.90
53272;DHT22;39160;48.580;7.756;2023-12-07T12:14:09;4.70;99.90
53272;DHT22;39160;48.580;7.756;2023-12-07T12:19:00;4.70;99.90
53272;DHT22;39160;48.580;7.756;2023-12-07T12:23:50;4.60;99.90
53272;DHT22;39160;48.580;7.756;2023-12-07T12:28:41;4.40;99.90
53272;DHT22;39160;48.580;7.756;2023-12-07T12:33:37;4.40;99.90
53272;DHT22;39160;48.580;7.756;2023-12-07T12:38:28;4.40;99.90
53272;DHT22;39160;48.580;7.756;2023-12-07T12:43:19;4.30;99.90
53272;DHT22;39160;48.580;7.756;2023-12-07T12:48:10;4.40;99.90
53272;DHT22;39160;48.580;7.756;2023-12-07T12:53:04;4.40;99.90
53272;DHT22;39160;48.580;7.756;2023-12-07T12:57:56;4.40;99.90
53272;DHT22;39160;48.580;7.756;2023-12-07T13:02:47;4.40;99.90
53272;DHT22;39160;48.580;7.756;2023-12-07T13:07:38;4.40;99.90
53272;DHT22;39160;48.580;7.756;2023-12-07T13:12:29;4.50;99.90
53272;DHT22;39160;48.580;7.756;2023-12-07T13:17:21;4.50;99.90
53272;DHT22;39160;48.580;7.756;2023-12-07T13:22:12;4.50;99.90
53272;DHT22;39160;48.580;7.756;2023-12-07T13:27:02;4.50;99.90
53272;DHT22;39160;48.580;7.756;2023-12-07T13:31:53;4.60;99.90
53272;DHT22;39160;48.580;7.756;2023-12-07T13:36:47;4.60;99.90
53272;DHT22;39160;48.580;7.756;2023-12-07T13:41:40;4.60;99.90
53272;DHT22;39160;48.580;7.756;2023-12-07T13:46:30;4.70;99.90
53272;DHT22;39160;48.580;7.756;2023-12-07T13:51:21;4.60;99.90
53272;DHT22;39160;48.580;7.756;2023-12-07T13:56:13;4.70;99.90
53272;DHT22;39160;48.580;7.756;2023-12-07T14:01:04;4.70;99.90
53272;DHT22;39160;48.580;7.756;2023-12-07T14:05:55;4.60;99.90
53272;DHT22;39160;48.580;7.756;2023-12-07T14:10:46;4.50;99.90
53272;DHT22;39160;48.580;7.756;2023-12-07T14:15:37;4.50;99.90
53272;DHT22;39160;48.580;7.756;2023-12-07T14:20:29;4.50;99.90
53272;DHT22;39160;48.580;7.756;2023-12-07T14:25:21;4.30;99.90
53272;DHT22;39160;48.580;7.756;2023-12-07T14:30:12;4.20;99.90
53272;DHT22;39160;48.580;7.756;2023-12-07T14:35:18;4.20;99.90
53272;DHT22;39160;48.580;7.756;2023-12-07T14:40:09;4.20;99.90
53272;DHT22;39160;48.580;7.756;2023-12-07T14:45:00;4.20;99.90
53272;DHT22;39160;48.580;7.756;2023-12-07T14:49:51;4.00;99.90
53272;DHT22;39160;48.580;7.756;2023-12-07T14:54:41;4.00;99.90
53272;DHT22;39160;48.580;7.756;2023-12-07T14:59:32;4.00;99.90
53272;DHT22;39160;48.580;7.756;2023-12-07T15:04:23;4.00;99.90
53272;DHT22;39160;48.580;7.756;2023-12-07T15:09:13;3.90;99.90
53272;DHT22;39160;48.580;7.756;2023-12-07T15:14:16;3.90;99.90
53272;DHT22;39160;48.580;7.756;2023-12-07T15:19:07;4.00;99.90
53272;DHT22;39160;48.580;7.756;2023-12-07T15:23:58;3.90;99.90
53272;DHT22;39160;48.580;7.756;2023-12-07T15:28:50;4.00;99.90
53272;DHT22;39160;48.580;7.756;2023-12-07T15:33:40;4.00;99.90
53272;DHT22;39160;48.580;7.756;2023-12-07T15:38:31;4.00;99.90
53272;DHT22;39160;48.580;7.756;2023-12-07T15:43:25;3.90;99.90
53272;DHT22;39160;48.580;7.756;2023-12-07T15:48:16;3.90;99.90
53272;DHT22;39160;48.580;7.756;2023-12-07T15:53:07;4.00;99.90
53272;DHT22;39160;48.580;7.756;2023-12-07T15:57:58;3.90;99.90
53272;DHT22;39160;48.580;7.756;2023-12-07T16:02:48;3.90;99.90
53272;DHT22;39160;48.580;7.756;2023-12-07T16:07:39;3.80;99.90
53272;DHT22;39160;48.580;7.756;2023-12-07T16:12:30;3.80;99.90
53272;DHT22;39160;48.580;7.756;2023-12-07T16:17:20;3.90;99.90
53272;DHT22;39160;48.580;7.756;2023-12-07T16:22:11;3.80;99.90
53272;DHT22;39160;48.580;7.756;2023-12-07T16:27:02;3.80;99.90
53272;DHT22;39160;48.580;7.756;2023-12-07T16:31:52;3.70;99.90
53272;DHT22;39160;48.580;7.756;2023-12-07T16:36:43;3.80;99.90
53272;DHT22;39160;48.580;7.756;2023-12-07T16:41:35;3.80;99.90
53272;DHT22;39160;48.580;7.756;2023-12-07T16:46:26;3.80;99.90
53272;DHT22;39160;48.580;7.756;2023-12-07T16:51:17;3.90;99.90
53272;DHT22;39160;48.580;7.756;2023-12-07T16:56:11;3.90;99.90
53272;DHT22;39160;48.580;7.756;2023-12-07T17:01:02;3.90;99.90
53272;DHT22;39160;48.580;7.756;2023-12-07T17:05:53;3.80;99.90
53272;DHT22;39160;48.580;7.756;2023-12-07T17:10:44;3.90;99.90
53272;DHT22;39160;48.580;7.756;2023-12-07T17:15:35;3.80;99.90
53272;DHT22;39160;48.580;7.756;2023-12-07T17:20:25;3.70;99.90
53272;DHT22;39160;48.580;7.756;2023-12-07T17:25:16;3.70;99.90
53272;DHT22;39160;48.580;7.756;2023-12-07T17:30:09;3.70;99.90
53272;DHT22;39160;48.580;7.756;2023-12-07T17:35:00;3.60;99.90
53272;DHT22;39160;48.580;7.756;2023-12-07T17:39:50;3.60;99.90
53272;DHT22;39160;48.580;7.756;2023-12-07T17:44:44;3.70;99.90
53272;DHT22;39160;48.580;7.756;2023-12-07T17:49:36;3.60;99.90
53272;DHT22;39160;48.580;7.756;2023-12-07T17:54:26;3.50;99.90
53272;DHT22;39160;48.580;7.756;2023-12-07T17:59:18;3.60;99.90
53272;DHT22;39160;48.580;7.756;2023-12-07T18:04:11;3.70;99.90
53272;DHT22;39160;48.580;7.756;2023-12-07T18:09:02;3.60;99.90
53272;DHT22;39160;48.580;7.756;2023-12-07T18:13:53;3.60;99.90
53272;DHT22;39160;48.580;7.756;2023-12-07T18:18:45;3.70;99.90
53272;DHT22;39160;48.580;7.756;2023-12-07T18:23:35;3.70;99.90
53272;DHT22;39160;48.580;7.756;2023-12-07T18:28:26;3.80;99.90
53272;DHT22;39160;48.580;7.756;2023-12-07T18:33:16;3.80;99.90
53272;DHT22;39160;48.580;7.756;2023-12-07T18:38:07;3.70;99.90
53272;DHT22;39160;48.580;7.756;2023-12-07T18:42:58;3.70;99.90
53272;DHT22;39160;48.580;7.756;2023-12-07T18:47:49;3.70;99.90
53272;DHT22;39160;48.580;7.756;2023-12-07T18:52:40;3.60;99.90
53272;DHT22;39160;48.580;7.756;2023-12-07T18:57:30;3.60;99.90
53272;DHT22;39160;48.580;7.756;2023-12-07T19:02:22;3.70;99.90
53272;DHT22;39160;48.580;7.756;2023-12-07T19:07:13;3.70;99.90
53272;DHT22;39160;48.580;7.756;2023-12-07T19:12:04;3.80;99.90
53272;DHT22;39160;48.580;7.756;2023-12-07T19:16:54;3.80;99.90
53272;DHT22;39160;48.580;7.756;2023-12-07T19:21:45;3.90;99.90
53272;DHT22;39160;48.580;7.756;2023-12-07T19:26:38;3.90;99.90
53272;DHT22;39160;48.580;7.756;2023-12-07T19:31:28;3.80;99.90
53272;DHT22;39160;48.580;7.756;2023-12-07T19:36:19;3.80;99.90
53272;DHT22;39160;48.580;7.756;2023-12-07T19:41:10;3.70;99.90
53272;DHT22;39160;48.580;7.756;2023-12-07T19:46:01;3.70;99.90
53272;DHT22;39160;48.580;7.756;2023-12-07T19:50:52;3.70;99.90
53272;DHT22;39160;48.580;7.756;2023-12-07T19:55:43;3.60;99.90
53272;DHT22;39160;48.580;7.756;2023-12-07T20:00:34;3.70;99.90
53272;DHT22;39160;48.580;7.756;2023-12-07T20:05:26;3.60;99.90
53272;DHT22;39160;48.580;7.756;2023-12-07T20:10:17;3.60;99.90
53272;DHT22;39160;48.580;7.756;2023-12-07T20:15:08;3.60;99.90
53272;DHT22;39160;48.580;7.756;2023-12-07T20:20:00;3.60;99.90
53272;DHT22;39160;48.580;7.756;2023-12-07T20:24:51;3.50;99.90
53272;DHT22;39160;48.580;7.756;2023-12-07T20:29:41;3.60;99.90
53272;DHT22;39160;48.580;7.756;2023-12-07T20:34:32;3.60;99.90
53272;DHT22;39160;48.580;7.756;2023-12-07T20:39:23;3.50;99.90
53272;DHT22;39160;48.580;7.756;2023-12-07T20:44:14;3.40;99.90
53272;DHT22;39160;48.580;7.756;2023-12-07T20:49:05;3.50;99.90
53272;DHT22;39160;48.580;7.756;2023-12-07T20:53:55;3.50;99.90
53272;DHT22;39160;48.580;7.756;2023-12-07T20:58:46;3.40;99.90
53272;DHT22;39160;48.580;7.756;2023-12-07T21:03:37;3.30;99.90
53272;DHT22;39160;48.580;7.756;2023-12-07T21:08:27;3.30;99.90
53272;DHT22;39160;48.580;7.756;2023-12-07T21:13:18;3.30;99.90
53272;DHT22;39160;48.580;7.756;2023-12-07T21:18:09;3.40;99.90
53272;DHT22;39160;48.580;7.756;2023-12-07T21:23:00;3.40;99.90
53272;DHT22;39160;48.580;7.756;2023-12-07T21:27:51;3.30;99.90
53272;DHT22;39160;48.580;7.756;2023-12-07T21:32:42;3.40;99.90
53272;DHT22;39160;48.580;7.756;2023-12-07T21:37:33;3.40;99.90
53272;DHT22;39160;48.580;7.756;2023-12-07T21:42:24;3.50;99.90
53272;DHT22;39160;48.580;7.756;2023-12-07T21:47:15;3.40;99.90
53272;DHT22;39160;48.580;7.756;2023-12-07T21:52:05;3.50;99.90
53272;DHT22;39160;48.580;7.756;2023-12-07T21:56:56;3.50;99.90
53272;DHT22;39160;48.580;7.756;2023-12-07T22:01:47;3.50;99.90
53272;DHT22;39160;48.580;7.756;2023-12-07T22:06:38;3.50;99.90
53272;DHT22;39160;48.580;7.756;2023-12-07T22:11:32;3.60;99.90
53272;DHT22;39160;48.580;7.756;2023-12-07T22:16:28;3.50;99.90
53272;DHT22;39160;48.580;7.756;2023-12-07T22:21:19;3.50;99.90
53272;DHT22;39160;48.580;7.756;2023-12-07T22:26:09;3.70;99.90
53272;DHT22;39160;48.580;7.756;2023-12-07T22:31:00;3.80;99.90
53272;DHT22;39160;48.580;7.756;2023-12-07T22:35:51;3.70;99.90
53272;DHT22;39160;48.580;7.756;2023-12-07T22:40:43;3.80;99.90
53272;DHT22;39160;48.580;7.756;2023-12-07T22:45:34;3.80;99.90
53272;DHT22;39160;48.580;7.756;2023-12-07T22:50:24;3.80;99.90
53272;DHT22;39160;48.580;7.756;2023-12-07T22:55:15;3.90;99.90
53272;DHT22;39160;48.580;7.756;2023-12-07T23:00:08;3.80;99.90
53272;DHT22;39160;48.580;7.756;2023-12-07T23:05:06;3.80;99.90
53272;DHT22;39160;48.580;7.756;2023-12-07T23:09:58;3.80;99.90
53272;DHT22;39160;48.580;7.756;2023-12-07T23:14:49;3.80;99.90
53272;DHT22;39160;48.580;7.756;2023-12-07T23:19:39;3.80;99.90
53272;DHT22;39160;48.580;7.756;2023-12-07T23:24:30;3.70;99.90
53272;DHT22;39160;48.580;7.756;2023-12-07T23:29:21;3.60;99.90
53272;DHT22;39160;48.580;7.756;2023-12-07T23:34:11;3.50;99.90
53272;DHT22;39160;48.580;7.756;2023-12-07T23:39:02;3.50;99.90
53272;DHT22;39160;48.580;7.756;2023-12-07T23:43:55;3.50;99.90
53272;DHT22;39160;48.580;7.756;2023-12-07T23:48:45;3.60;99.90
53272;DHT22;39160;48.580;7.756;2023-12-07T23:53:36;3.50;99.90
53272;DHT22;39160;48.580;7.756;2023-12-07T23:58:27;3.60;99.90
